Time;durP1;ratioP1;P1;durP2;ratioP2;P2;SDS_P1;SDS_P2;PMS_P1;PMS_P2;Temp;Humidity;BMP_temperature;BMP_pressure;BME280_temperature;BME280_humidity;BME280_pressure;Samples;Min_cycle;Max_cycle;Signal;HPM_P1;HPM_P2
2024/01/27 00:01:03;;;;;;;3.60;2.40;;;;;;;0.97;75.60;98778.27;105036;1268;61142;-26
2024/01/27 00:03:30;;;;;;;5.80;2.80;;;;;;;1.35;75.06;98783.36;105207;1267;61089;-26
2024/01/27 00:05:57;;;;;;;4.30;2.70;;;;;;;1.97;72.55;98781.20;105116;1267;73040;-26
2024/01/27 00:08:24;;;;;;;4.10;2.40;;;;;;;2.10;71.67;98784.87;105125;1267;74350;-26
2024/01/27 00:10:51;;;;;;;5.20;2.90;;;;;;;1.78;72.69;98785.59;105132;1264;72729;-26
2024/01/27 00:13:18;;;;;;;5.70;2.70;;;;;;;1.64;73.05;98788.81;105136;1266;61072;-26
2024/01/27 00:15:44;;;;;;;4.40;2.90;;;;;;;1.37;73.92;98789.44;104757;1264;61140;-26
2024/01/27 00:18:11;;;;;;;5.00;3.10;;;;;;;1.18;74.71;98786.89;104977;1267;72933;-26
2024/01/27 00:20:38;;;;;;;2.40;1.80;;;;;;;1.07;75.15;98785.69;104884;1267;74204;-26
2024/01/27 00:23:05;;;;;;;1.70;1.40;;;;;;;1.53;73.85;98784.56;105045;1267;72612;-26
2024/01/27 00:25:32;;;;;;;4.80;2.20;;;;;;;2.00;71.82;98786.73;104850;1263;61033;-26
2024/01/27 00:27:59;;;;;;;4.90;2.60;;;;;;;1.97;71.41;98785.17;104877;1269;61116;-26
2024/01/27 00:30:26;;;;;;;2.50;2.20;;;;;;;1.51;72.39;98781.58;104857;1267;72861;-26
2024/01/27 00:32:53;;;;;;;4.70;2.70;;;;;;;1.38;73.00;98779.47;104867;1267;74150;-26
2024/01/27 00:35:20;;;;;;;4.60;2.60;;;;;;;1.10;74.41;98779.21;105124;1267;73287;-26
2024/01/27 00:37:47;;;;;;;7.60;3.10;;;;;;;1.09;74.58;98777.08;105070;1265;61158;-27
2024/01/27 00:40:14;;;;;;;7.50;2.40;;;;;;;0.91;75.28;98778.76;104814;1266;61221;-26
2024/01/27 00:42:41;;;;;;;5.00;3.30;;;;;;;1.39;73.77;98772.06;104927;1266;73006;-26
2024/01/27 00:45:08;;;;;;;4.30;2.60;;;;;;;1.82;71.85;98776.50;105157;1267;74943;-26
2024/01/27 00:47:35;;;;;;;4.80;2.60;;;;;;;1.90;71.50;98776.95;105770;1254;72814;-26
2024/01/27 00:50:02;;;;;;;3.80;2.40;;;;;;;1.83;71.65;98773.54;105812;1254;61048;-27
2024/01/27 00:52:29;;;;;;;3.50;2.20;;;;;;;1.68;71.97;98772.03;105810;1254;61106;-28
2024/01/27 00:54:56;;;;;;;7.20;2.60;;;;;;;1.36;72.69;98769.29;105791;1254;73172;-27
2024/01/27 00:57:23;;;;;;;4.70;2.60;;;;;;;0.98;73.99;98768.87;105897;1257;74228;-27
2024/01/27 00:59:50;;;;;;;2.70;1.90;;;;;;;0.89;75.20;98768.41;105864;1254;71704;-27
2024/01/27 01:02:17;;;;;;;3.60;2.30;;;;;;;1.38;73.74;98763.92;105877;1257;61130;-27
2024/01/27 01:04:44;;;;;;;4.90;2.80;;;;;;;1.72;71.72;98763.79;105777;1257;61160;-27
2024/01/27 01:07:11;;;;;;;3.10;2.40;;;;;;;1.69;71.16;98759.34;105839;1254;73065;-27
2024/01/27 01:09:38;;;;;;;3.00;2.20;;;;;;;1.53;71.63;98758.73;105879;1257;74783;-27
2024/01/27 01:12:05;;;;;;;4.40;2.40;;;;;;;1.30;72.36;98761.20;105832;1254;73218;-27
2024/01/27 01:14:32;;;;;;;7.10;2.50;;;;;;;1.25;72.94;98764.88;105644;1254;61769;-27
2024/01/27 01:16:59;;;;;;;6.10;3.00;;;;;;;0.92;74.26;98763.64;105739;1257;61192;-26
2024/01/27 01:19:26;;;;;;;3.00;2.10;;;;;;;0.77;74.77;98766.02;105668;1254;72844;-27
2024/01/27 01:21:53;;;;;;;4.10;2.60;;;;;;;1.13;73.95;98763.20;105797;1254;74374;-27
2024/01/27 01:24:20;;;;;;;2.80;1.90;;;;;;;1.54;71.78;98757.67;105814;1254;72471;-27
2024/01/27 01:26:46;;;;;;;4.60;2.60;;;;;;;1.47;71.29;98753.18;105532;1253;61153;-27
2024/01/27 01:29:13;;;;;;;4.50;2.60;;;;;;;1.36;71.35;98747.41;105783;1257;61192;-27
2024/01/27 01:31:43;;;;;;;4.40;2.60;;;;;;;1.07;72.66;98745.69;105593;1254;73549;-27
2024/01/27 01:34:10;;;;;;;6.40;2.40;;;;;;;0.95;73.31;98743.02;105861;1254;74411;-27
2024/01/27 01:36:37;;;;;;;4.70;1.80;;;;;;;0.77;73.65;98743.80;105808;1253;72365;-27
2024/01/27 01:39:04;;;;;;;4.40;2.00;;;;;;;0.73;73.67;98745.03;105842;1254;61317;-27
2024/01/27 01:41:31;;;;;;;3.50;2.70;;;;;;;1.26;72.20;98741.38;105804;1253;61262;-27
2024/01/27 01:43:58;;;;;;;2.70;2.10;;;;;;;1.46;71.06;98743.33;105613;1253;73435;-27
2024/01/27 01:46:24;;;;;;;4.10;2.50;;;;;;;1.43;70.85;98743.47;105827;1254;74657;-27
2024/01/27 01:48:51;;;;;;;4.00;2.60;;;;;;;1.23;71.15;98739.30;105718;1254;72742;-27
2024/01/27 01:51:19;;;;;;;6.40;2.40;;;;;;;0.99;71.84;98738.36;105681;1253;61061;-27
2024/01/27 01:53:48;;;;;;;4.60;2.80;;;;;;;0.78;72.45;98738.12;105612;1254;61122;-27
2024/01/27 01:56:15;;;;;;;4.50;2.10;;;;;;;0.61;73.26;98736.84;105499;1259;73107;-27
2024/01/27 01:58:42;;;;;;;3.60;2.40;;;;;;;0.49;73.61;98732.96;105779;1257;74043;-27
2024/01/27 02:01:09;;;;;;;2.10;1.50;;;;;;;0.88;72.64;98728.62;105818;1254;72702;-27
2024/01/27 02:03:35;;;;;;;3.00;2.00;;;;;;;1.33;70.59;98721.54;105685;1253;61160;-27
2024/01/27 02:06:02;;;;;;;3.10;1.90;;;;;;;1.36;70.33;98726.52;105766;1254;61055;-27
2024/01/27 02:08:29;;;;;;;3.20;1.90;;;;;;;1.01;70.94;98721.88;105411;1254;73006;-26
2024/01/27 02:10:58;;;;;;;3.50;1.70;;;;;;;0.96;71.60;98724.52;105790;1254;74302;-27
2024/01/27 02:13:24;;;;;;;3.80;2.20;;;;;;;0.88;72.33;98723.86;105823;1254;72662;-27
2024/01/27 02:15:51;;;;;;;4.20;2.60;;;;;;;0.74;72.52;98721.91;105574;1254;61150;-27
2024/01/27 02:18:18;;;;;;;3.00;1.90;;;;;;;0.48;72.97;98719.33;105578;1258;61084;-27
2024/01/27 02:20:46;;;;;;;3.20;2.40;;;;;;;0.98;72.46;98719.78;105715;1254;72864;-27
2024/01/27 02:23:13;;;;;;;3.10;2.20;;;;;;;1.37;70.08;98715.36;105836;1254;74371;-27
2024/01/27 02:25:40;;;;;;;3.00;2.00;;;;;;;1.40;69.49;98715.05;105556;1254;72530;-27
2024/01/27 02:28:07;;;;;;;3.50;2.20;;;;;;;1.37;69.81;98716.88;105710;1254;61065;-27
2024/01/27 02:30:34;;;;;;;4.30;2.30;;;;;;;1.20;70.17;98722.17;105815;1257;61051;-27
2024/01/27 02:33:01;;;;;;;4.50;2.30;;;;;;;0.97;70.61;98716.75;105715;1254;72982;-27
2024/01/27 02:35:28;;;;;;;3.30;2.10;;;;;;;0.86;70.80;98720.20;105705;1254;74328;-27
2024/01/27 02:37:55;;;;;;;3.10;2.00;;;;;;;0.74;71.56;98724.98;105812;1254;72538;-26
2024/01/27 02:40:22;;;;;;;2.60;2.00;;;;;;;0.58;71.99;98722.14;105817;1254;61150;-27
2024/01/27 02:42:49;;;;;;;2.30;1.70;;;;;;;1.10;71.32;98722.77;105730;1257;61100;-27
2024/01/27 02:45:15;;;;;;;2.00;1.40;;;;;;;1.64;68.48;98722.23;105603;1254;73840;-27
2024/01/27 02:47:43;;;;;;;2.20;1.50;;;;;;;1.79;67.63;98718.75;105789;1255;74034;-27
2024/01/27 02:50:11;;;;;;;3.10;1.80;;;;;;;1.51;67.92;98720.99;105767;1253;73202;-27
2024/01/27 02:52:37;;;;;;;2.60;2.00;;;;;;;1.34;68.31;98726.80;105600;1253;61038;-27
2024/01/27 02:55:05;;;;;;;3.00;1.70;;;;;;;1.16;68.54;98726.96;105532;1255;61103;-27
2024/01/27 02:57:32;;;;;;;4.00;1.90;;;;;;;0.93;69.83;98723.60;105600;1259;73555;-27
2024/01/27 02:59:59;;;;;;;2.30;1.80;;;;;;;0.87;69.80;98725.94;105738;1253;74376;-26
2024/01/27 03:02:26;;;;;;;5.00;1.90;;;;;;;0.86;70.14;98721.89;105761;1254;72656;-27
2024/01/27 03:04:52;;;;;;;2.50;1.30;;;;;;;0.77;70.58;98719.71;105654;1254;61147;-27
2024/01/27 03:07:20;;;;;;;3.50;1.60;;;;;;;1.45;68.81;98716.30;105526;1257;61130;-27
2024/01/27 03:09:47;;;;;;;3.40;1.90;;;;;;;1.88;66.82;98719.02;105667;1254;74752;-27
2024/01/27 03:12:15;;;;;;;3.20;2.00;;;;;;;1.71;66.18;98716.45;105805;1257;74182;-27
2024/01/27 03:14:42;;;;;;;3.60;1.80;;;;;;;1.52;66.50;98717.70;105715;1254;71191;-27
2024/01/27 03:17:09;;;;;;;4.00;2.10;;;;;;;1.27;67.20;98715.18;105825;1254;61054;-27
2024/01/27 03:19:36;;;;;;;1.80;1.40;;;;;;;0.98;67.95;98717.05;105780;1256;61138;-27
2024/01/27 03:22:03;;;;;;;2.60;1.60;;;;;;;0.92;68.05;98716.48;105810;1257;73908;-27
2024/01/27 03:24:30;;;;;;;2.50;1.70;;;;;;;0.70;69.01;98714.08;105621;1254;74391;-27
2024/01/27 03:26:57;;;;;;;2.00;1.80;;;;;;;0.66;68.77;98716.31;105678;1254;72566;-27
2024/01/27 03:29:24;;;;;;;3.10;1.50;;;;;;;0.60;69.29;98717.80;105723;1254;61096;-26
2024/01/27 03:31:51;;;;;;;1.30;1.00;;;;;;;0.60;69.84;98718.95;105596;1257;61116;-27
2024/01/27 03:34:19;;;;;;;2.90;1.70;;;;;;;1.31;67.84;98717.38;105755;1254;73627;-27
2024/01/27 03:36:49;;;;;;;1.40;1.30;;;;;;;1.60;65.34;98714.05;105830;1254;74252;-27
2024/01/27 03:39:16;;;;;;;3.10;1.80;;;;;;;1.68;65.11;98718.12;105806;1253;72437;-27
2024/01/27 03:41:43;;;;;;;2.20;1.30;;;;;;;1.31;65.72;98712.90;105683;1254;61046;-27
2024/01/27 03:44:10;;;;;;;1.90;1.60;;;;;;;1.04;66.16;98715.55;105604;1253;61137;-27
2024/01/27 03:46:39;;;;;;;3.40;1.70;;;;;;;1.12;66.22;98718.45;105524;1254;73716;-27
2024/01/27 03:49:05;;;;;;;3.50;1.70;;;;;;;0.98;66.28;98714.66;105758;1254;74251;-27
2024/01/27 03:51:33;;;;;;;3.10;1.70;;;;;;;0.76;66.71;98713.44;105695;1253;72638;-27
2024/01/27 03:54:00;;;;;;;4.50;1.70;;;;;;;0.70;67.24;98715.42;105572;1254;61109;-27
2024/01/27 03:56:26;;;;;;;5.00;2.10;;;;;;;0.65;67.33;98717.20;105789;1254;61066;-27
2024/01/27 03:58:54;;;;;;;2.60;1.50;;;;;;;0.54;68.16;98714.79;105771;1254;73879;-26
2024/01/27 04:01:22;;;;;;;2.60;1.70;;;;;;;0.42;68.76;98717.91;105605;1259;74002;-27
2024/01/27 04:03:49;;;;;;;1.60;1.00;;;;;;;0.96;68.46;98716.09;105634;1254;71674;-27
2024/01/27 04:06:16;;;;;;;1.60;1.50;;;;;;;1.65;65.74;98718.45;105713;1254;61185;-27
2024/01/27 04:08:46;;;;;;;3.00;1.80;;;;;;;1.76;64.59;98721.15;105569;1254;61144;-27
2024/01/27 04:11:20;;;;;;;1.80;1.20;;;;;;;1.67;64.47;98723.33;105572;1254;73801;-27
2024/01/27 04:13:48;;;;;;;2.60;1.60;;;;;;;1.42;64.83;98717.85;105668;1254;74220;-27
2024/01/27 04:16:15;;;;;;;3.00;1.60;;;;;;;1.22;65.35;98720.86;105664;1259;72625;-27
2024/01/27 04:18:42;;;;;;;3.20;1.60;;;;;;;1.04;66.06;98716.09;105340;1254;61065;-27
2024/01/27 04:21:09;;;;;;;3.30;1.70;;;;;;;0.84;66.71;98716.31;105683;1254;61086;-27
2024/01/27 04:23:36;;;;;;;1.60;1.30;;;;;;;0.71;67.12;98714.20;105570;1254;73811;-27
2024/01/27 04:26:03;;;;;;;3.00;1.60;;;;;;;0.58;67.53;98716.52;105774;1254;74148;-27
2024/01/27 04:28:31;;;;;;;3.00;1.50;;;;;;;0.43;67.84;98722.27;105775;1254;71485;-27
2024/01/27 04:30:58;;;;;;;1.60;1.10;;;;;;;0.33;68.20;98721.91;105689;1254;61241;-27
2024/01/27 04:33:25;;;;;;;3.70;1.70;;;;;;;0.86;68.08;98723.91;105550;1257;61118;-27
2024/01/27 04:35:52;;;;;;;1.10;1.00;;;;;;;1.57;65.14;98726.05;105760;1254;73704;-27
2024/01/27 04:38:19;;;;;;;1.90;1.10;;;;;;;1.68;63.97;98730.95;105751;1254;74292;-27
2024/01/27 04:40:46;;;;;;;2.30;1.10;;;;;;;1.61;64.33;98730.13;105632;1253;73021;-27
2024/01/27 04:43:16;;;;;;;1.90;1.10;;;;;;;1.38;64.48;98736.37;105764;1254;61020;-27
2024/01/27 04:45:43;;;;;;;3.20;1.70;;;;;;;1.09;65.19;98737.73;105676;1253;61112;-27
2024/01/27 04:48:10;;;;;;;1.40;1.10;;;;;;;0.93;65.94;98743.77;105824;1254;73739;-28
2024/01/27 04:50:37;;;;;;;1.90;1.20;;;;;;;0.81;66.23;98744.67;105575;1254;74370;-27
2024/01/27 04:53:04;;;;;;;1.60;1.00;;;;;;;0.59;66.65;98745.99;105704;1254;72439;-27
2024/01/27 04:55:31;;;;;;;2.80;1.40;;;;;;;0.42;67.80;98740.96;105503;1254;61157;-27
2024/01/27 04:58:01;;;;;;;2.30;1.50;;;;;;;0.25;68.36;98739.46;105574;1257;61131;-27
2024/01/27 05:00:28;;;;;;;3.30;1.50;;;;;;;0.08;69.14;98733.38;105653;1254;73819;-27
2024/01/27 05:02:57;;;;;;;1.60;1.00;;;;;;;0.57;68.67;98741.81;105779;1254;74954;-27
2024/01/27 05:05:24;;;;;;;3.00;1.50;;;;;;;1.20;66.18;98744.73;105741;1253;73102;-27
2024/01/27 05:07:51;;;;;;;1.90;1.10;;;;;;;1.30;65.00;98750.42;105752;1254;61235;-27
2024/01/27 05:10:18;;;;;;;2.90;1.60;;;;;;;1.18;65.20;98749.48;105650;1257;61106;-27
2024/01/27 05:12:45;;;;;;;2.80;1.30;;;;;;;0.97;65.34;98744.27;105780;1253;73867;-27
2024/01/27 05:15:12;;;;;;;1.70;1.30;;;;;;;0.74;65.91;98748.91;105782;1254;74684;-27
2024/01/27 05:17:39;;;;;;;1.60;1.30;;;;;;;0.53;66.36;98746.09;105724;1254;71721;-27
2024/01/27 05:20:07;;;;;;;1.70;1.30;;;;;;;0.37;67.24;98742.22;105626;1254;61068;-27
2024/01/27 05:22:34;;;;;;;2.20;1.10;;;;;;;0.17;67.47;98741.52;105627;1260;61126;-27
2024/01/27 05:25:03;;;;;;;1.50;1.30;;;;;;;0.02;67.95;98739.98;105722;1254;74172;-27
2024/01/27 05:27:30;;;;;;;2.80;1.50;;;;;;;-0.17;68.31;98742.30;105681;1254;74674;-27
2024/01/27 05:29:57;;;;;;;1.60;1.20;;;;;;;-0.34;69.26;98743.16;105723;1254;72562;-27
2024/01/27 05:32:24;;;;;;;2.30;1.40;;;;;;;-0.51;69.98;98742.84;105710;1254;61078;-27
2024/01/27 05:34:50;;;;;;;1.30;1.20;;;;;;;-0.01;70.00;98748.11;105785;1257;61129;-27
2024/01/27 05:37:17;;;;;;;2.00;1.40;;;;;;;0.80;67.93;98752.23;105800;1254;73871;-27
2024/01/27 05:39:44;;;;;;;2.20;1.60;;;;;;;1.02;66.64;98753.63;105765;1257;74422;-27
2024/01/27 05:42:11;;;;;;;3.10;1.80;;;;;;;0.90;66.28;98760.17;105700;1254;72637;-27
2024/01/27 05:44:40;;;;;;;2.80;1.80;;;;;;;0.63;66.34;98758.98;105685;1254;61164;-27
2024/01/27 05:47:07;;;;;;;2.10;1.60;;;;;;;0.34;66.89;98760.95;105647;1254;61115;-27
2024/01/27 05:49:38;;;;;;;2.30;1.40;;;;;;;0.04;67.82;98765.14;105545;1254;74432;-27
2024/01/27 05:52:05;;;;;;;2.40;1.30;;;;;;;-0.16;68.40;98769.05;105613;1254;74775;-27
2024/01/27 05:54:33;;;;;;;3.60;1.80;;;;;;;-0.32;68.91;98774.30;105787;1253;72676;-27
2024/01/27 05:57:00;;;;;;;3.20;1.50;;;;;;;-0.46;69.17;98775.88;105720;1254;61131;-27
2024/01/27 05:59:27;;;;;;;2.80;1.50;;;;;;;-0.61;69.37;98778.03;105711;1257;61097;-27
2024/01/27 06:01:54;;;;;;;2.20;1.40;;;;;;;-0.79;69.76;98781.28;105804;1254;73813;-27
2024/01/27 06:04:20;;;;;;;3.30;2.00;;;;;;;-0.96;70.86;98783.30;105812;1256;74356;-27
2024/01/27 06:06:47;;;;;;;2.50;1.70;;;;;;;-0.47;70.89;98780.89;105795;1254;72672;-27
2024/01/27 06:09:15;;;;;;;4.50;2.10;;;;;;;0.42;68.50;98783.48;105853;1254;61112;-27
2024/01/27 06:11:42;;;;;;;2.70;1.90;;;;;;;0.68;67.05;98785.05;105657;1259;61112;-27
2024/01/27 06:14:09;;;;;;;5.70;2.20;;;;;;;0.60;66.51;98785.23;105797;1254;73885;-27
2024/01/27 06:16:36;;;;;;;3.20;2.00;;;;;;;0.39;66.33;98784.30;105732;1254;74222;-27
2024/01/27 06:19:02;;;;;;;2.90;1.80;;;;;;;0.18;66.71;98787.41;105658;1254;72610;-27
2024/01/27 06:21:30;;;;;;;3.10;1.70;;;;;;;-0.01;67.10;98786.33;105549;1254;61039;-28
2024/01/27 06:23:57;;;;;;;2.30;1.40;;;;;;;-0.17;67.32;98787.86;105753;1257;61095;-27
2024/01/27 06:26:23;;;;;;;2.40;1.60;;;;;;;-0.30;67.60;98786.88;105691;1254;73822;-27
2024/01/27 06:28:50;;;;;;;5.30;1.70;;;;;;;-0.42;67.89;98785.14;105586;1254;74889;-27
2024/01/27 06:31:17;;;;;;;3.20;1.90;;;;;;;-0.57;67.86;98787.59;105728;1254;73088;-27
2024/01/27 06:33:44;;;;;;;2.40;1.30;;;;;;;-0.75;68.88;98792.04;105746;1254;61121;-27
2024/01/27 06:36:11;;;;;;;2.80;1.60;;;;;;;-0.94;70.18;98793.59;105695;1257;61062;-29
2024/01/27 06:38:38;;;;;;;4.20;2.40;;;;;;;-0.44;71.20;98792.50;105746;1258;73483;-28
2024/01/27 06:41:04;;;;;;;3.50;2.10;;;;;;;0.56;69.87;98791.73;105807;1253;74815;-27
2024/01/27 06:43:31;;;;;;;7.70;4.20;;;;;;;0.99;68.18;98792.05;105596;1257;72696;-28
2024/01/27 06:45:58;;;;;;;8.00;3.70;;;;;;;1.10;67.69;98796.67;105575;1258;61116;-27
2024/01/27 06:48:26;;;;;;;6.80;3.70;;;;;;;1.09;67.36;98798.60;105648;1253;61176;-27
2024/01/27 06:50:53;;;;;;;10.10;5.10;;;;;;;1.04;67.29;98798.14;105663;1254;73569;-27
2024/01/27 06:53:20;;;;;;;15.10;7.90;;;;;;;1.00;67.30;98798.85;105748;1254;74328;-27
2024/01/27 06:55:47;;;;;;;18.00;9.10;;;;;;;0.90;66.88;98806.11;105709;1254;71510;-27
2024/01/27 06:58:14;;;;;;;14.90;8.70;;;;;;;0.91;66.94;98809.33;105779;1253;61121;-27
2024/01/27 07:00:41;;;;;;;19.60;11.30;;;;;;;0.95;66.88;98804.39;105714;1253;61169;-27
2024/01/27 07:03:09;;;;;;;20.20;12.50;;;;;;;0.97;66.00;98806.70;105736;1254;74639;-27
2024/01/27 07:05:40;;;;;;;17.10;10.10;;;;;;;0.96;66.07;98808.94;105768;1254;74369;-27
2024/01/27 07:08:08;;;;;;;13.30;7.30;;;;;;;0.97;66.00;98809.54;105744;1254;71178;-27
2024/01/27 07:10:35;;;;;;;14.90;6.90;;;;;;;1.05;65.58;98812.48;105651;1253;61255;-27
2024/01/27 07:13:03;;;;;;;12.40;6.40;;;;;;;1.13;65.63;98815.36;105796;1257;61065;-27
2024/01/27 07:15:29;;;;;;;9.70;6.10;;;;;;;1.27;65.91;98817.26;105742;1254;74436;-27
2024/01/27 07:17:56;;;;;;;15.40;8.00;;;;;;;1.45;65.73;98824.11;105593;1254;73214;-27
2024/01/27 07:20:24;;;;;;;13.50;7.40;;;;;;;1.67;65.22;98825.30;105608;1253;73288;-27
2024/01/27 07:22:51;;;;;;;11.80;6.50;;;;;;;1.86;64.79;98833.11;105655;1254;61145;-27
2024/01/27 07:25:18;;;;;;;18.80;8.90;;;;;;;2.09;63.66;98832.33;105776;1254;61099;-26
2024/01/27 07:27:46;;;;;;;19.60;11.20;;;;;;;2.04;62.58;98828.45;105724;1254;72820;-27
2024/01/27 07:30:14;;;;;;;21.20;10.90;;;;;;;2.09;62.45;98823.40;105823;1254;74318;-27
2024/01/27 07:32:44;;;;;;;48.90;25.70;;;;;;;2.11;62.14;98828.80;105706;1260;71487;-27
2024/01/27 07:35:10;;;;;;;23.60;14.50;;;;;;;1.74;63.04;98827.36;105698;1256;61131;-27
2024/01/27 07:37:38;;;;;;;19.60;11.80;;;;;;;2.01;62.82;98829.65;105659;1254;61142;-27
2024/01/27 07:40:05;;;;;;;21.30;12.40;;;;;;;2.15;62.62;98827.09;105701;1254;73836;-26
2024/01/27 07:42:32;;;;;;;18.10;11.70;;;;;;;2.31;62.39;98829.02;105722;1254;74232;-27
2024/01/27 07:45:00;;;;;;;19.20;11.80;;;;;;;2.44;61.77;98830.23;105817;1254;73182;-27
2024/01/27 07:47:27;;;;;;;21.70;12.00;;;;;;;2.73;62.46;98832.68;105814;1254;61138;-27
2024/01/27 07:49:54;;;;;;;20.90;10.70;;;;;;;2.83;60.93;98834.75;105836;1254;61187;-27
2024/01/27 07:52:21;;;;;;;16.90;10.10;;;;;;;2.74;60.72;98838.30;105685;1254;74137;-27
2024/01/27 07:54:48;;;;;;;17.90;9.90;;;;;;;2.58;60.96;98843.07;105710;1253;74376;-27
2024/01/27 07:57:15;;;;;;;17.10;9.70;;;;;;;2.19;62.75;98841.98;105524;1259;72489;-27
2024/01/27 07:59:42;;;;;;;18.10;9.80;;;;;;;2.49;62.31;98843.73;105764;1254;61045;-27
2024/01/27 08:02:09;;;;;;;14.50;8.30;;;;;;;2.65;61.88;98844.93;105753;1259;61197;-27
2024/01/27 08:04:38;;;;;;;16.90;7.90;;;;;;;2.89;61.91;98846.95;105754;1254;73502;-27
2024/01/27 08:07:09;;;;;;;16.50;7.20;;;;;;;2.84;61.03;98852.20;105650;1259;74226;-27
2024/01/27 08:09:37;;;;;;;13.20;7.20;;;;;;;2.92;62.04;98855.20;105693;1254;72617;-26
2024/01/27 08:12:05;;;;;;;18.90;9.50;;;;;;;2.36;62.32;98855.13;105493;1253;60987;-27
2024/01/27 08:14:33;;;;;;;18.10;10.50;;;;;;;2.57;62.39;98859.74;105589;1255;61179;-27
2024/01/27 08:17:00;;;;;;;16.40;9.80;;;;;;;2.83;61.04;98864.90;105659;1254;73567;-27
2024/01/27 08:19:27;;;;;;;16.70;9.40;;;;;;;3.27;61.02;98866.85;105567;1254;74455;-26
2024/01/27 08:21:54;;;;;;;15.70;9.10;;;;;;;3.67;59.87;98864.17;105484;1254;72579;-26
2024/01/27 08:24:23;;;;;;;12.10;7.80;;;;;;;3.97;59.92;98863.71;105574;1254;61298;-27
2024/01/27 08:26:51;;;;;;;13.20;8.00;;;;;;;3.75;58.23;98867.72;105685;1254;61108;-26
2024/01/27 08:29:17;;;;;;;15.00;8.50;;;;;;;3.96;58.71;98867.22;105845;1254;74256;-27
2024/01/27 08:31:44;;;;;;;14.40;8.60;;;;;;;4.16;59.05;98871.39;105627;1257;74238;-26
2024/01/27 08:34:12;;;;;;;14.90;7.90;;;;;;;4.26;59.04;98875.61;105804;1254;72700;-26
2024/01/27 08:36:40;;;;;;;11.90;8.10;;;;;;;4.40;58.57;98877.77;105612;1254;61074;-26
2024/01/27 08:39:07;;;;;;;10.80;7.30;;;;;;;4.43;58.33;98882.55;105738;1259;61068;-27
2024/01/27 08:41:36;;;;;;;12.10;8.30;;;;;;;4.54;57.95;98887.61;105872;1254;73781;-27
2024/01/27 08:44:03;;;;;;;13.10;7.90;;;;;;;4.34;58.28;98890.99;105805;1254;74780;-27
2024/01/27 08:46:30;;;;;;;13.60;8.20;;;;;;;3.99;58.68;98890.75;105778;1254;72257;-27
2024/01/27 08:48:57;;;;;;;14.10;8.50;;;;;;;3.98;58.41;98893.20;105558;1254;61049;-27
2024/01/27 08:51:24;;;;;;;11.60;7.50;;;;;;;4.25;59.42;98894.24;105602;1255;61138;-27
2024/01/27 08:53:51;;;;;;;11.00;8.00;;;;;;;4.42;57.83;98893.64;105766;1254;72893;-27
2024/01/27 08:56:18;;;;;;;11.90;7.80;;;;;;;4.53;56.81;98891.45;105657;1254;74185;-27
2024/01/27 08:58:47;;;;;;;10.50;6.80;;;;;;;4.45;57.40;98891.38;105771;1254;73181;-27
2024/01/27 09:01:16;;;;;;;14.30;8.10;;;;;;;4.98;58.13;98890.33;105575;1254;61074;-27
2024/01/27 09:03:43;;;;;;;12.20;7.60;;;;;;;5.14;56.95;98891.79;105693;1259;61281;-27
2024/01/27 09:06:10;;;;;;;10.90;6.50;;;;;;;4.90;55.51;98896.64;105866;1254;73740;-27
2024/01/27 09:08:38;;;;;;;9.80;6.60;;;;;;;4.86;55.87;98893.95;105716;1254;74372;-27
2024/01/27 09:11:05;;;;;;;9.70;5.90;;;;;;;4.84;56.52;98896.98;105784;1253;73234;-27
2024/01/27 09:13:32;;;;;;;8.10;5.40;;;;;;;5.21;55.57;98898.02;105823;1257;61173;-27
2024/01/27 09:15:59;;;;;;;7.10;5.00;;;;;;;5.13;55.79;98902.48;105787;1258;61174;-27
2024/01/27 09:18:27;;;;;;;10.70;5.10;;;;;;;5.12;55.97;98895.33;105814;1254;73814;-27
2024/01/27 09:20:55;;;;;;;8.50;4.80;;;;;;;5.10;55.91;98894.05;105656;1259;74175;-27
2024/01/27 09:23:22;;;;;;;6.70;5.00;;;;;;;5.39;55.89;98898.00;105776;1254;72519;-27
2024/01/27 09:25:48;;;;;;;8.50;4.90;;;;;;;5.48;55.08;98899.31;105840;1254;61051;-27
2024/01/27 09:28:15;;;;;;;7.50;4.80;;;;;;;5.44;55.29;98900.59;105611;1258;61218;-28
2024/01/27 09:30:42;;;;;;;7.80;4.40;;;;;;;5.40;55.27;98900.33;105579;1254;73821;-27
2024/01/27 09:33:10;;;;;;;7.30;4.10;;;;;;;5.21;54.54;98898.05;105736;1254;74329;-28
2024/01/27 09:35:37;;;;;;;5.80;3.90;;;;;;;5.08;54.93;98900.74;105347;1254;72507;-27
2024/01/27 09:38:06;;;;;;;7.20;4.10;;;;;;;5.00;55.21;98900.49;105686;1254;61139;-27
2024/01/27 09:40:32;;;;;;;6.00;4.10;;;;;;;5.03;55.52;98902.23;105718;1254;61103;-27
2024/01/27 09:43:00;;;;;;;5.60;3.70;;;;;;;5.27;56.00;98899.23;105551;1254;73762;-27
2024/01/27 09:45:27;;;;;;;7.00;3.50;;;;;;;5.58;53.15;98900.25;105512;1254;74276;-27
2024/01/27 09:47:59;;;;;;;4.90;3.40;;;;;;;5.66;53.46;98901.30;105694;1254;71341;-27
2024/01/27 09:50:26;;;;;;;5.30;3.50;;;;;;;5.93;54.01;98901.82;105589;1252;61114;-27
2024/01/27 09:52:53;;;;;;;6.00;4.10;;;;;;;6.29;53.37;98905.91;105621;1259;61143;-27
2024/01/27 09:55:20;;;;;;;4.40;2.80;;;;;;;6.16;50.80;98904.64;105829;1254;73144;-27
2024/01/27 09:57:47;;;;;;;2.20;1.20;;;;;;;5.68;47.62;98906.32;105680;1257;74392;-27
2024/01/27 10:00:16;;;;;;;1.00;0.80;;;;;;;5.79;44.70;98903.92;105637;1254;72617;-29
2024/01/27 10:02:43;;;;;;;2.20;1.40;;;;;;;6.21;44.85;98905.39;105650;1259;61112;-27
2024/01/27 10:05:10;;;;;;;3.40;1.30;;;;;;;6.64;45.18;98907.88;105496;1259;61153;-27
2024/01/27 10:07:37;;;;;;;0.70;0.60;;;;;;;6.12;44.22;98904.56;105731;1254;75029;-27
2024/01/27 10:10:05;;;;;;;1.90;1.20;;;;;;;5.55;44.20;98904.86;105856;1259;74661;-27
2024/01/27 10:12:32;;;;;;;1.70;1.20;;;;;;;5.95;45.78;98909.63;105719;1254;72816;-27
2024/01/27 10:15:00;;;;;;;1.20;0.80;;;;;;;6.28;44.48;98906.49;105721;1254;60991;-27
2024/01/27 10:17:32;;;;;;;1.30;0.70;;;;;;;6.29;44.06;98910.38;105706;1255;61157;-27
2024/01/27 10:20:01;;;;;;;1.50;1.00;;;;;;;6.14;42.92;98914.09;105839;1254;73812;-27
2024/01/27 10:22:28;;;;;;;1.30;1.00;;;;;;;6.03;44.03;98916.56;105720;1260;73935;-27
2024/01/27 10:24:56;;;;;;;0.90;0.70;;;;;;;6.04;43.79;98914.59;105858;1254;72718;-27
2024/01/27 10:27:23;;;;;;;1.80;1.00;;;;;;;5.47;44.49;98913.30;105689;1254;61075;-27
2024/01/27 10:29:55;;;;;;;1.50;1.00;;;;;;;5.93;45.68;98913.73;105828;1259;61221;-28
2024/01/27 10:32:25;;;;;;;1.60;1.10;;;;;;;5.97;46.87;98919.31;105712;1254;72841;-28
2024/01/27 10:35:08;;;;;;;2.30;1.20;;;;;;;6.39;45.12;98916.63;105866;1254;74932;-27
2024/01/27 10:37:39;;;;;;;1.20;1.10;;;;;;;5.97;45.36;98922.80;105705;1254;72660;-27
2024/01/27 10:40:10;;;;;;;1.40;1.10;;;;;;;6.24;46.08;98922.62;105785;1254;61054;-27
2024/01/27 10:42:37;;;;;;;3.20;1.30;;;;;;;6.41;46.01;98924.13;105678;1259;61062;-27
2024/01/27 10:45:05;;;;;;;3.80;1.50;;;;;;;6.58;45.49;98923.67;105673;1254;172942;-27
2024/01/27 10:47:33;;;;;;;1.60;1.10;;;;;;;6.74;44.80;98925.85;105695;1261;73606;-27
2024/01/27 10:50:00;;;;;;;2.90;1.50;;;;;;;6.77;44.58;98927.92;105870;1254;72531;-27
2024/01/27 10:52:37;;;;;;;2.10;1.50;;;;;;;6.34;45.14;98933.48;105652;1254;61080;-27
2024/01/27 10:55:07;;;;;;;2.50;1.50;;;;;;;6.44;45.78;98939.58;105625;1262;61100;-27
2024/01/27 10:57:34;;;;;;;1.60;1.20;;;;;;;6.37;46.11;98934.02;105716;1259;72650;-27
2024/01/27 11:00:03;;;;;;;2.70;1.30;;;;;;;6.65;45.64;98935.26;105899;1257;74150;-27
2024/01/27 11:02:33;;;;;;;2.80;1.70;;;;;;;6.39;45.37;98929.70;105720;1254;74085;-27
2024/01/27 11:05:02;;;;;;;3.30;1.80;;;;;;;6.02;45.50;98934.31;105705;1254;61159;-27
2024/01/27 11:07:32;;;;;;;2.00;1.30;;;;;;;5.75;47.26;98934.83;105330;1254;61182;-27
2024/01/27 11:09:59;;;;;;;3.00;1.70;;;;;;;6.21;45.97;98941.94;105707;1254;72657;-26
2024/01/27 11:12:26;;;;;;;2.10;1.50;;;;;;;6.67;45.69;98947.73;105843;1257;74366;-27
2024/01/27 11:14:53;;;;;;;1.90;1.60;;;;;;;6.64;45.17;98951.21;105833;1254;72675;-27
2024/01/27 11:17:20;;;;;;;3.10;1.60;;;;;;;6.60;44.88;98950.75;105709;1254;61726;-28
2024/01/27 11:19:47;;;;;;;2.00;1.20;;;;;;;6.62;44.94;98955.13;105704;1259;61103;-27
2024/01/27 11:22:28;;;;;;;1.70;1.10;;;;;;;6.98;44.71;98960.67;105785;1254;73940;-27
2024/01/27 11:25:06;;;;;;;2.20;1.40;;;;;;;7.55;43.99;98959.34;105602;1254;73615;-27
2024/01/27 11:27:33;;;;;;;1.40;1.10;;;;;;;7.89;43.58;98964.61;105427;1254;72195;-27
2024/01/27 11:30:00;;;;;;;2.40;1.80;;;;;;;7.92;43.39;98966.63;105677;1254;61071;-27
2024/01/27 11:32:27;;;;;;;2.20;1.60;;;;;;;6.64;45.26;98962.56;105767;1255;61099;-27